Time;durP1;ratioP1;P1;durP2;ratioP2;P2;SDS_P1;SDS_P2;PMS_P1;PMS_P2;Temp;Humidity;BMP_temperature;BMP_pressure;BME280_temperature;BME280_humidity;BME280_pressure;Samples;Min_cycle;Max_cycle;Signal;HPM_P1;HPM_P2
2023/05/05 00:01:13;;;;;;;4.93;1.30;;;;;;;;;;5008619;28;20120;-65
2023/05/05 00:03:40;;;;;;;;;;;;;;;;;;5029619;28;20136;-65
2023/05/05 00:06:06;;;;;;;6.28;1.67;;;;;;;;;;5032206;28;20117;-65
2023/05/05 00:08:33;;;;;;;5.18;1.33;;;;;;;;;;5033547;28;20142;-65
2023/05/05 00:10:59;;;;;;;5.50;1.20;;;;;;;;;;5027778;28;20040;-66
2023/05/05 00:13:25;;;;;;;;;;;;;;;;;;5031085;28;20035;-65
2023/05/05 00:15:52;;;;;;;4.15;1.40;;;;;;;;;;5030424;28;20426;-65
2023/05/05 00:18:19;;;;;;;6.03;1.25;;;;;;;;;;5031136;28;20037;-65
2023/05/05 00:20:46;;;;;;;2.88;1.10;;;;;;;;;;5028281;28;20048;-66
2023/05/05 00:23:12;;;;;;;3.00;1.13;;;;;;;;;;5033064;28;20029;-67
2023/05/05 00:25:39;;;;;;;5.43;1.25;;;;;;;;;;5028036;28;20192;-66
2023/05/05 00:28:05;;;;;;;4.60;1.33;;;;;;;;;;5031411;28;20033;-65
2023/05/05 00:30:31;;;;;;;;;;;;;;;;;;5028649;28;20041;-66
2023/05/05 00:32:57;;;;;;;4.20;1.40;;;;;;;;;;5026867;28;19916;-67
2023/05/05 00:35:23;;;;;;;4.65;1.20;;;;;;;;;;5034525;28;20025;-66
2023/05/05 00:37:49;;;;;;;4.20;1.30;;;;;;;;;;5013219;28;20510;-65
2023/05/05 00:40:17;;;;;;;;;;;;;;;;;;5026089;28;20080;-64
2023/05/05 00:42:47;;;;;;;6.07;1.65;;;;;;;;;;5025568;28;20358;-64
2023/05/05 00:45:14;;;;;;;4.45;1.33;;;;;;;;;;5032467;28;20102;-65
2023/05/05 00:47:41;;;;;;;4.75;1.38;;;;;;;;;;5024964;28;20033;-65
2023/05/05 00:50:08;;;;;;;5.82;1.60;;;;;;;;;;5033080;28;20033;-65
2023/05/05 00:52:37;;;;;;;3.90;1.23;;;;;;;;;;5027738;28;20300;-65
2023/05/05 00:55:07;;;;;;;3.67;1.30;;;;;;;;;;5027718;28;20051;-65
2023/05/05 00:57:35;;;;;;;4.85;1.20;;;;;;;;;;5031408;28;20544;-65
2023/05/05 01:00:02;;;;;;;5.68;1.70;;;;;;;;;;5025936;28;20584;-64
2023/05/05 01:02:29;;;;;;;3.50;1.13;;;;;;;;;;5013588;28;20025;-64
2023/05/05 01:04:56;;;;;;;4.35;1.10;;;;;;;;;;5030521;28;20036;-65
2023/05/05 01:07:22;;;;;;;5.57;1.20;;;;;;;;;;5031490;28;20031;-66
2023/05/05 01:09:48;;;;;;;;;;;;;;;;;;5030049;28;20450;-66
2023/05/05 01:12:33;;;;;;;5.32;1.30;;;;;;;;;;5029396;28;19919;-67
2023/05/05 01:15:04;;;;;;;3.33;1.10;;;;;;;;;;5030198;28;20056;-66
2023/05/05 01:17:37;;;;;;;6.65;1.50;;;;;;;;;;5031013;28;20029;-65
2023/05/05 01:20:20;;;;;;;4.95;1.20;;;;;;;;;;5024170;28;20363;-66
2023/05/05 01:22:51;;;;;;;5.15;1.13;;;;;;;;;;5027701;28;20036;-65
2023/05/05 01:25:17;;;;;;;3.33;1.13;;;;;;;;;;5011162;28;20106;-65
2023/05/05 01:27:43;;;;;;;;;;;;;;;;;;5026025;28;20119;-64
2023/05/05 01:30:28;;;;;;;14.60;10.00;;;;;;;;;;5027037;28;19995;-64
2023/05/05 01:32:57;;;;;;;12.95;8.55;;;;;;;;;;5020885;28;20044;-65
2023/05/05 01:35:28;;;;;;;10.75;5.68;;;;;;;;;;5020330;28;20064;-64
2023/05/05 01:38:05;;;;;;;8.82;3.80;;;;;;;;;;5023990;28;20686;-65
2023/05/05 01:40:33;;;;;;;8.30;4.18;;;;;;;;;;5027345;28;20168;-65
2023/05/05 01:43:00;;;;;;;7.03;2.47;;;;;;;;;;5027251;28;20020;-64
2023/05/05 01:45:29;;;;;;;5.40;2.20;;;;;;;;;;5028330;28;20029;-64
2023/05/05 01:47:56;;;;;;;5.68;1.95;;;;;;;;;;5020809;28;20126;-64
2023/05/05 01:50:22;;;;;;;3.60;1.25;;;;;;;;;;5027438;28;20037;-66
2023/05/05 01:52:49;;;;;;;4.90;1.63;;;;;;;;;;5024632;28;20072;-65
2023/05/05 01:55:17;;;;;;;7.15;1.88;;;;;;;;;;5010296;28;20466;-64
2023/05/05 01:57:45;;;;;;;6.22;2.10;;;;;;;;;;5024592;28;20120;-65
2023/05/05 02:00:11;;;;;;;4.80;1.50;;;;;;;;;;5012516;28;20024;-64
2023/05/05 02:02:38;;;;;;;4.78;1.38;;;;;;;;;;5023791;28;20032;-65
2023/05/05 02:05:06;;;;;;;4.93;1.30;;;;;;;;;;5029088;28;20036;-64
2023/05/05 02:07:32;;;;;;;3.25;1.10;;;;;;;;;;5025359;28;20025;-64
2023/05/05 02:09:59;;;;;;;2.80;1.02;;;;;;;;;;5028196;28;20025;-64
2023/05/05 02:12:26;;;;;;;3.10;1.08;;;;;;;;;;5028915;28;20067;-64
2023/05/05 02:14:52;;;;;;;4.03;1.08;;;;;;;;;;5021518;28;20029;-64
2023/05/05 02:17:20;;;;;;;3.60;1.00;;;;;;;;;;5010091;28;20155;-64
2023/05/05 02:19:47;;;;;;;4.75;1.10;;;;;;;;;;5022366;28;20054;-64
2023/05/05 02:22:15;;;;;;;3.25;1.10;;;;;;;;;;5023941;28;20570;-64
2023/05/05 02:24:42;;;;;;;2.60;0.88;;;;;;;;;;5018857;28;20075;-64
2023/05/05 02:27:09;;;;;;;3.63;1.10;;;;;;;;;;5012446;28;20546;-65
2023/05/05 02:29:39;;;;;;;3.70;1.15;;;;;;;;;;5004490;28;20402;-65
2023/05/05 02:32:06;;;;;;;2.72;0.90;;;;;;;;;;5023101;28;20543;-64
2023/05/05 02:35:11;;;;;;;3.28;0.98;;;;;;;;;;5014641;28;20033;-65
2023/05/05 02:37:38;;;;;;;3.45;1.13;;;;;;;;;;5018603;28;20225;-65
2023/05/05 02:40:05;;;;;;;3.58;1.10;;;;;;;;;;5026648;28;20025;-65
2023/05/05 02:42:42;;;;;;;3.45;1.00;;;;;;;;;;5019996;28;20463;-64
2023/05/05 02:45:14;;;;;;;3.47;1.00;;;;;;;;;;5025572;28;20021;-65
2023/05/05 02:47:41;;;;;;;2.58;0.90;;;;;;;;;;5023137;28;20094;-65
2023/05/05 02:50:08;;;;;;;2.97;0.88;;;;;;;;;;5009748;28;20537;-65
2023/05/05 02:52:34;;;;;;;1.98;0.68;;;;;;;;;;5027319;28;20162;-65
2023/05/05 02:55:01;;;;;;;3.97;0.93;;;;;;;;;;5027233;28;20528;-65
2023/05/05 02:57:37;;;;;;;5.22;0.98;;;;;;;;;;5024372;28;20096;-65
2023/05/05 03:00:10;;;;;;;5.13;1.20;;;;;;;;;;5029230;28;20035;-65
2023/05/05 03:02:42;;;;;;;5.40;1.27;;;;;;;;;;5002171;28;20028;-65
2023/05/05 03:05:30;;;;;;;4.45;1.27;;;;;;;;;;5028379;28;20478;-64
2023/05/05 03:08:03;;;;;;;4.05;1.10;;;;;;;;;;5003937;28;20281;-65
2023/05/05 03:10:34;;;;;;;4.38;1.23;;;;;;;;;;5026487;28;20127;-65
2023/05/05 03:13:01;;;;;;;5.25;1.42;;;;;;;;;;5021772;28;20034;-64
2023/05/05 03:15:30;;;;;;;6.03;1.83;;;;;;;;;;5018436;28;20033;-65
2023/05/05 03:17:57;;;;;;;8.45;2.20;;;;;;;;;;5024268;28;20391;-64
2023/05/05 03:20:24;;;;;;;8.13;2.15;;;;;;;;;;5018552;28;20060;-64
2023/05/05 03:22:51;;;;;;;6.97;2.08;;;;;;;;;;5008820;28;20032;-64
2023/05/05 03:25:17;;;;;;;6.72;1.77;;;;;;;;;;5023981;28;20037;-65
2023/05/05 03:27:43;;;;;;;;;;;;;;;;;;5018860;28;20040;-65
2023/05/05 03:30:09;;;;;;;7.75;1.95;;;;;;;;;;5020507;28;20042;-64
2023/05/05 03:32:36;;;;;;;7.38;1.95;;;;;;;;;;5003913;28;20137;-64
2023/05/05 03:35:02;;;;;;;;;;;;;;;;;;5020309;28;20368;-63
2023/05/05 03:37:28;;;;;;;8.25;1.95;;;;;;;;;;5021166;28;20429;-64
2023/05/05 03:39:54;;;;;;;;;;;;;;;;;;5010007;28;22113;-64
2023/05/05 03:42:20;;;;;;;7.07;1.88;;;;;;;;;;5022468;28;19999;-65
2023/05/05 03:44:46;;;;;;;;;;;;;;;;;;5021608;28;20035;-64
2023/05/05 03:47:12;;;;;;;5.82;1.83;;;;;;;;;;5028517;28;19917;-65
2023/05/05 03:49:38;;;;;;;;;;;;;;;;;;5026095;28;20193;-64
2023/05/05 03:52:05;;;;;;;7.57;2.13;;;;;;;;;;5021575;28;20477;-65
2023/05/05 03:54:31;;;;;;;6.07;2.00;;;;;;;;;;5025873;28;20602;-65
2023/05/05 03:56:57;;;;;;;;;;;;;;;;;;5007008;28;20813;-64
2023/05/05 03:59:23;;;;;;;5.32;1.98;;;;;;;;;;5029956;28;19955;-64
2023/05/05 04:01:49;;;;;;;;;;;;;;;;;;5003781;28;20029;-64
2023/05/05 04:04:15;;;;;;;5.65;1.80;;;;;;;;;;5026499;28;20499;-64
2023/05/05 04:06:41;;;;;;;5.05;1.48;;;;;;;;;;5008447;28;20120;-64
2023/05/05 04:09:07;;;;;;;;;;;;;;;;;;5012171;28;20024;-64
2023/05/05 04:11:33;;;;;;;7.90;1.70;;;;;;;;;;5024734;28;19912;-64
2023/05/05 04:13:59;;;;;;;4.88;1.45;;;;;;;;;;5026697;28;20056;-64
2023/05/05 04:16:25;;;;;;;;;;;;;;;;;;5008774;28;20167;-65
2023/05/05 04:18:51;;;;;;;6.22;2.00;;;;;;;;;;5009621;28;20521;-64
2023/05/05 04:21:18;;;;;;;5.35;1.98;;;;;;;;;;5024957;28;20116;-64
2023/05/05 04:23:44;;;;;;;;;;;;;;;;;;5001991;28;20028;-64
2023/05/05 04:26:10;;;;;;;7.68;2.90;;;;;;;;;;5022401;28;20304;-64
2023/05/05 04:28:36;;;;;;;6.32;2.33;;;;;;;;;;5024203;28;20395;-64
2023/05/05 04:31:03;;;;;;;;;;;;;;;;;;5024468;28;20060;-65
2023/05/05 04:33:29;;;;;;;5.28;1.77;;;;;;;;;;5027458;28;19908;-66
2023/05/05 04:35:55;;;;;;;;;;;;;;;;;;5022746;28;20032;-64
2023/05/05 04:38:21;;;;;;;8.35;1.83;;;;;;;;;;5027589;28;19994;-64
2023/05/05 04:40:47;;;;;;;;;;;;;;;;;;5021682;28;20029;-64
2023/05/05 04:43:14;;;;;;;6.95;1.77;;;;;;;;;;5023726;28;19920;-66
2023/05/05 04:45:40;;;;;;;4.82;1.40;;;;;;;;;;5027612;28;20018;-65
2023/05/05 04:48:06;;;;;;;;;;;;;;;;;;5031393;28;20167;-65
2023/05/05 04:50:32;;;;;;;6.30;1.85;;;;;;;;;;5031907;28;20164;-65
2023/05/05 04:52:58;;;;;;;;;;;;;;;;;;5009979;28;20534;-64
2023/05/05 04:55:24;;;;;;;7.60;1.60;;;;;;;;;;5013191;28;19916;-67
2023/05/05 04:57:50;;;;;;;;;;;;;;;;;;5028667;28;20086;-64
2023/05/05 05:00:16;;;;;;;6.40;1.38;;;;;;;;;;5032577;28;19916;-65
2023/05/05 05:02:42;;;;;;;5.18;1.30;;;;;;;;;;5007812;28;20550;-64
2023/05/05 05:05:08;;;;;;;;;;;;;;;;;;5028528;28;20101;-66
2023/05/05 05:07:34;;;;;;;5.50;1.30;;;;;;;;;;5028074;28;20249;-66
2023/05/05 05:10:01;;;;;;;7.05;1.33;;;;;;;;;;5011498;28;20170;-65
2023/05/05 05:12:27;;;;;;;15.38;2.20;;;;;;;;;;5012572;28;20258;-66
2023/05/05 05:14:53;;;;;;;;;;;;;;;;;;5025546;28;20138;-66
2023/05/05 05:17:21;;;;;;;5.82;1.90;;;;;;;;;;5025160;28;19939;-65
2023/05/05 05:19:47;;;;;;;9.07;2.30;;;;;;;;;;5024243;28;20040;-64
2023/05/05 05:22:13;;;;;;;;;;;;;;;;;;5025898;28;20087;-66
2023/05/05 05:24:39;;;;;;;9.20;2.17;;;;;;;;;;5022323;28;19920;-64
2023/05/05 05:27:06;;;;;;;7.70;1.95;;;;;;;;;;5016564;28;20493;-65
2023/05/05 05:29:33;;;;;;;8.63;2.38;;;;;;;;;;5010663;28;20037;-65
2023/05/05 05:31:59;;;;;;;6.60;1.70;;;;;;;;;;5030233;28;20040;-64
2023/05/05 05:34:25;;;;;;;;;;;;;;;;;;5013191;28;20196;-64
2023/05/05 05:36:51;;;;;;;7.30;1.90;;;;;;;;;;5011300;28;19913;-64
2023/05/05 05:39:17;;;;;;;;;;;;;;;;;;5031375;28;20042;-64
2023/05/05 05:41:43;;;;;;;5.40;1.30;;;;;;;;;;5027837;28;19912;-64
2023/05/05 05:44:10;;;;;;;7.63;2.03;;;;;;;;;;5031253;28;20013;-65
2023/05/05 05:46:35;;;;;;;;;;;;;;;;;;5010460;28;20573;-66
2023/05/05 05:49:02;;;;;;;10.73;2.20;;;;;;;;;;5004109;28;19979;-65
2023/05/05 05:51:29;;;;;;;5.35;1.60;;;;;;;;;;5022961;28;20285;-64
2023/05/05 05:53:55;;;;;;;9.80;1.60;;;;;;;;;;5007573;28;20893;-66
2023/05/05 05:56:21;;;;;;;14.05;1.88;;;;;;;;;;5008419;28;20069;-68
2023/05/05 05:58:47;;;;;;;8.43;1.50;;;;;;;;;;5018773;28;20041;-69
2023/05/05 06:01:14;;;;;;;;;;;;;;;;;;5019785;28;20028;-65
2023/05/05 06:03:41;;;;;;;8.85;1.85;;;;;;;;;;5018519;28;19920;-65
2023/05/05 06:06:07;;;;;;;6.07;1.30;;;;;;;;;;5021936;28;20128;-65
2023/05/05 06:08:33;;;;;;;10.02;2.38;;;;;;;;;;5005980;28;20352;-65
2023/05/05 06:10:59;;;;;;;5.45;2.17;;;;;;;;;;5004556;28;20040;-65
2023/05/05 06:13:26;;;;;;;10.70;3.80;;;;;;;;;;5021609;28;20319;-67
2023/05/05 06:15:52;;;;;;;6.20;1.90;;;;;;;;;;5022110;28;20025;-66
2023/05/05 06:18:18;;;;;;;11.25;2.92;;;;;;;;;;5024590;28;20044;-64
2023/05/05 06:20:44;;;;;;;7.63;2.58;;;;;;;;;;5021907;28;20056;-65
2023/05/05 06:23:10;;;;;;;9.85;3.33;;;;;;;;;;5021515;28;20029;-64
2023/05/05 06:25:36;;;;;;;;;;;;;;;;;;5022741;28;20033;-66
2023/05/05 06:28:04;;;;;;;12.50;3.67;;;;;;;;;;5025605;28;19913;-66
2023/05/05 06:30:30;;;;;;;12.57;3.10;;;;;;;;;;5020747;28;20091;-65
2023/05/05 06:32:57;;;;;;;16.27;5.10;;;;;;;;;;5003241;28;20332;-65
2023/05/05 06:35:23;;;;;;;14.05;2.10;;;;;;;;;;5023906;28;20047;-66
2023/05/05 06:37:49;;;;;;;8.00;2.05;;;;;;;;;;5012891;28;20502;-65
2023/05/05 06:40:16;;;;;;;14.45;3.10;;;;;;;;;;5023754;28;20029;-65
2023/05/05 06:42:42;;;;;;;9.60;2.72;;;;;;;;;;5007073;28;20502;-65
2023/05/05 06:45:08;;;;;;;9.50;1.85;;;;;;;;;;5020847;28;20211;-65
2023/05/05 06:47:35;;;;;;;8.45;2.80;;;;;;;;;;5020774;28;20776;-64
2023/05/05 06:50:01;;;;;;;7.00;2.17;;;;;;;;;;5021520;28;20360;-65
2023/05/05 06:52:27;;;;;;;4.85;1.20;;;;;;;;;;5011357;28;20475;-65
2023/05/05 06:54:53;;;;;;;5.57;1.60;;;;;;;;;;5020503;28;20894;-66
2023/05/05 06:57:19;;;;;;;7.60;1.60;;;;;;;;;;5025037;28;20140;-65
2023/05/05 06:59:45;;;;;;;5.82;1.88;;;;;;;;;;5015875;28;20029;-65
2023/05/05 07:02:11;;;;;;;4.00;0.90;;;;;;;;;;5022641;28;20033;-65
2023/05/05 07:04:38;;;;;;;5.38;0.90;;;;;;;;;;5002735;28;20314;-65
2023/05/05 07:07:04;;;;;;;5.60;1.20;;;;;;;;;;5023753;28;20033;-65
2023/05/05 07:09:30;;;;;;;6.65;0.70;;;;;;;;;;5021535;28;20029;-64
2023/05/05 07:11:56;;;;;;;4.60;0.95;;;;;;;;;;5018563;28;20692;-65
2023/05/05 07:14:22;;;;;;;2.47;0.80;;;;;;;;;;5022249;28;20476;-67
2023/05/05 07:16:48;;;;;;;2.55;0.70;;;;;;;;;;5018640;28;20509;-65
2023/05/05 07:19:14;;;;;;;;;;;;;;;;;;5023828;28;20053;-65
2023/05/05 07:21:40;;;;;;;4.65;0.65;;;;;;;;;;5015355;28;19960;-65
2023/05/05 07:24:07;;;;;;;2.50;0.63;;;;;;;;;;5013212;28;20440;-66
2023/05/05 07:26:33;;;;;;;4.97;0.70;;;;;;;;;;5021965;28;20742;-66
2023/05/05 07:28:59;;;;;;;3.10;0.80;;;;;;;;;;5018196;28;20021;-66
2023/05/05 07:31:25;;;;;;;7.18;0.88;;;;;;;;;;5023026;28;20564;-65
2023/05/05 07:33:51;;;;;;;4.25;0.80;;;;;;;;;;5022593;28;20021;-65
2023/05/05 07:36:18;;;;;;;4.22;0.70;;;;;;;;;;5009550;28;20033;-65
2023/05/05 07:38:44;;;;;;;7.00;0.77;;;;;;;;;;5000390;28;20032;-66
2023/05/05 07:41:11;;;;;;;8.30;1.10;;;;;;;;;;5006853;28;20025;-65
2023/05/05 07:43:40;;;;;;;3.47;0.68;;;;;;;;;;5027400;28;20144;-64
2023/05/05 07:46:06;;;;;;;2.60;0.70;;;;;;;;;;5009438;28;20021;-66
2023/05/05 07:48:32;;;;;;;4.40;1.05;;;;;;;;;;5004321;28;20079;-65
2023/05/05 07:50:58;;;;;;;3.60;0.82;;;;;;;;;;5022857;28;20064;-65
2023/05/05 07:53:24;;;;;;;3.30;0.85;;;;;;;;;;5007737;28;20489;-64
2023/05/05 07:55:51;;;;;;;3.30;0.90;;;;;;;;;;5018567;28;20107;-65
2023/05/05 07:58:17;;;;;;;5.07;1.10;;;;;;;;;;5022678;28;20349;-66
2023/05/05 08:00:43;;;;;;;3.58;1.00;;;;;;;;;;5007714;28;20026;-66
2023/05/05 08:03:09;;;;;;;2.28;0.70;;;;;;;;;;5022476;28;20029;-64
2023/05/05 08:05:35;;;;;;;2.38;0.60;;;;;;;;;;5023241;28;20276;-64
2023/05/05 08:08:02;;;;;;;2.85;0.90;;;;;;;;;;5022178;28;20084;-65
2023/05/05 08:10:28;;;;;;;5.45;0.80;;;;;;;;;;5022737;28;20053;-66
2023/05/05 08:12:54;;;;;;;3.78;0.80;;;;;;;;;;5018479;28;20044;-65
2023/05/05 08:15:21;;;;;;;3.33;0.77;;;;;;;;;;5008340;28;20319;-67
2023/05/05 08:17:48;;;;;;;3.20;0.63;;;;;;;;;;5022001;28;20033;-65
2023/05/05 08:20:14;;;;;;;2.88;0.90;;;;;;;;;;5022369;28;20611;-66
2023/05/05 08:22:41;;;;;;;2.33;0.90;;;;;;;;;;5001736;28;20034;-65
2023/05/05 08:25:09;;;;;;;3.15;0.80;;;;;;;;;;5024562;28;20504;-65
2023/05/05 08:27:36;;;;;;;2.42;0.68;;;;;;;;;;5025166;28;20795;-65
2023/05/05 08:30:03;;;;;;;2.42;0.70;;;;;;;;;;5026027;28;20087;-66
2023/05/05 08:32:29;;;;;;;3.10;0.60;;;;;;;;;;5025225;28;20470;-65
2023/05/05 08:34:56;;;;;;;2.40;0.60;;;;;;;;;;5025103;28;20021;-66
2023/05/05 08:37:22;;;;;;;1.83;0.60;;;;;;;;;;5026332;28;20087;-65
2023/05/05 08:39:48;;;;;;;2.13;0.60;;;;;;;;;;5021411;28;20356;-65
2023/05/05 08:42:14;;;;;;;3.17;0.80;;;;;;;;;;5009352;28;20067;-66
2023/05/05 08:44:41;;;;;;;1.50;0.60;;;;;;;;;;5019345;28;20051;-66
2023/05/05 08:47:09;;;;;;;3.17;0.80;;;;;;;;;;5026508;28;20143;-65
2023/05/05 08:49:46;;;;;;;1.08;0.50;;;;;;;;;;5010249;28;20036;-65
2023/05/05 08:52:17;;;;;;;3.75;0.60;;;;;;;;;;5023999;28;20131;-67
2023/05/05 08:54:50;;;;;;;1.95;0.60;;;;;;;;;;5023372;28;20037;-65
2023/05/05 08:57:19;;;;;;;1.67;0.47;;;;;;;;;;5008989;28;20040;-65
2023/05/05 08:59:45;;;;;;;3.33;0.75;;;;;;;;;;5004844;28;20029;-66
2023/05/05 09:02:13;;;;;;;2.92;0.50;;;;;;;;;;5026271;28;20117;-65
2023/05/05 09:04:39;;;;;;;1.63;0.57;;;;;;;;;;5005210;28;20471;-66
2023/05/05 09:07:05;;;;;;;5.47;0.70;;;;;;;;;;5026049;28;20576;-65
2023/05/05 09:09:31;;;;;;;3.35;0.60;;;;;;;;;;5021474;28;20029;-65
2023/05/05 09:11:58;;;;;;;3.50;0.60;;;;;;;;;;5024386;28;20140;-65
2023/05/05 09:14:24;;;;;;;4.75;0.75;;;;;;;;;;5005977;28;20757;-65
2023/05/05 09:16:50;;;;;;;1.38;0.50;;;;;;;;;;5006992;28;20087;-65
2023/05/05 09:19:17;;;;;;;3.42;0.60;;;;;;;;;;5004375;28;20454;-65
2023/05/05 09:21:49;;;;;;;4.10;0.75;;;;;;;;;;5006699;28;20518;-64
2023/05/05 09:24:16;;;;;;;3.40;0.60;;;;;;;;;;5003856;28;20483;-65
2023/05/05 09:26:43;;;;;;;2.47;0.60;;;;;;;;;;5001440;28;20246;-65
2023/05/05 09:29:09;;;;;;;3.33;0.60;;;;;;;;;;5017532;28;20476;-66
2023/05/05 09:31:36;;;;;;;3.60;0.63;;;;;;;;;;5007608;28;20029;-66
2023/05/05 09:34:13;;;;;;;3.85;0.73;;;;;;;;;;5006227;28;20434;-66
2023/05/05 09:36:43;;;;;;;4.22;0.45;;;;;;;;;;4997994;28;20328;-66
2023/05/05 09:39:10;;;;;;;2.42;0.65;;;;;;;;;;5002436;28;20392;-64
2023/05/05 09:41:39;;;;;;;2.00;0.60;;;;;;;;;;5002106;28;20567;-64
2023/05/05 09:44:06;;;;;;;2.40;0.52;;;;;;;;;;5003756;28;20387;-65
2023/05/05 09:46:32;;;;;;;3.58;0.60;;;;;;;;;;5006898;28;20055;-65
2023/05/05 09:49:12;;;;;;;2.25;0.55;;;;;;;;;;5003131;28;20063;-66
2023/05/05 09:51:38;;;;;;;1.88;0.52;;;;;;;;;;4998505;28;20653;-64
2023/05/05 09:54:04;;;;;;;4.60;0.70;;;;;;;;;;5002380;28;20018;-64
2023/05/05 09:56:39;;;;;;;1.55;0.57;;;;;;;;;;5006574;28;20026;-67
2023/05/05 09:59:11;;;;;;;2.80;0.60;;;;;;;;;;4998978;28;20054;-64
2023/05/05 10:01:38;;;;;;;2.70;0.50;;;;;;;;;;5000941;28;20490;-64
2023/05/05 10:04:04;;;;;;;1.40;0.50;;;;;;;;;;5001208;28;20021;-65
2023/05/05 10:06:40;;;;;;;3.58;0.65;;;;;;;;;;5001044;28;20018;-65
2023/05/05 10:09:07;;;;;;;1.27;0.43;;;;;;;;;;5001890;28;20136;-65
2023/05/05 10:11:34;;;;;;;3.05;0.70;;;;;;;;;;5002778;28;20029;-65
2023/05/05 10:14:00;;;;;;;3.13;0.63;;;;;;;;;;5001161;28;20032;-66
2023/05/05 10:16:28;;;;;;;1.83;0.65;;;;;;;;;;5001569;28;20396;-65
2023/05/05 10:18:56;;;;;;;1.98;0.60;;;;;;;;;;5001560;28;20160;-66
2023/05/05 10:21:23;;;;;;;3.25;0.77;;;;;;;;;;5002519;28;20311;-64
2023/05/05 10:23:57;;;;;;;1.60;0.60;;;;;;;;;;5001442;28;20032;-65
2023/05/05 10:26:26;;;;;;;3.97;0.70;;;;;;;;;;5018365;28;20042;-64
2023/05/05 10:28:55;;;;;;;2.50;0.70;;;;;;;;;;4999343;28;20030;-65
2023/05/05 10:31:47;;;;;;;2.42;0.73;;;;;;;;;;5016336;28;20034;-65
2023/05/05 10:34:46;;;;;;;3.58;0.55;;;;;;;;;;4995062;28;20041;-65
2023/05/05 10:37:12;;;;;;;3.03;0.52;;;;;;;;;;4930374;28;20054;-65
2023/05/05 10:39:39;;;;;;;2.10;0.60;;;;;;;;;;4926505;28;20034;-65
2023/05/05 10:42:05;;;;;;;2.63;0.60;;;;;;;;;;4949261;28;20035;-65
2023/05/05 10:44:32;;;;;;;1.60;0.50;;;;;;;;;;4945678;28;20802;-66
2023/05/05 10:46:58;;;;;;;3.97;0.80;;;;;;;;;;4943930;28;20639;-66
2023/05/05 10:49:45;;;;;;;2.25;0.80;;;;;;;;;;4949674;28;20863;-66
2023/05/05 10:52:20;;;;;;;3.15;0.65;;;;;;;;;;4937056;28;20560;-66
2023/05/05 10:54:49;;;;;;;8.27;1.70;;;;;;;;;;4945221;28;20093;-66
2023/05/05 10:57:18;;;;;;;4.97;1.60;;;;;;;;;;4948705;28;20129;-66
2023/05/05 10:59:46;;;;;;;2.65;0.70;;;;;;;;;;4944071;28;20047;-66
2023/05/05 11:02:19;;;;;;;2.47;0.60;;;;;;;;;;4947947;28;20146;-66
2023/05/05 11:05:04;;;;;;;2.78;0.60;;;;;;;;;;4947423;28;20158;-66
2023/05/05 11:07:31;;;;;;;3.20;0.70;;;;;;;;;;4945347;28;20378;-66
2023/05/05 11:10:16;;;;;;;1.88;0.50;;;;;;;;;;4925877;28;20750;-65
2023/05/05 11:12:51;;;;;;;2.03;0.65;;;;;;;;;;4968443;28;20103;-66
2023/05/05 11:15:17;;;;;;;;;;;;;;;;;;5000726;28;20102;-65
2023/05/05 11:17:45;;;;;;;1.85;0.47;;;;;;;;;;4998127;28;19923;-66
2023/05/05 11:20:11;;;;;;;10.52;0.73;;;;;;;;;;5018383;28;20045;-64
2023/05/05 11:22:56;;;;;;;2.47;0.60;;;;;;;;;;5004137;28;20025;-67
2023/05/05 11:25:45;;;;;;;3.87;0.67;;;;;;;;;;5023600;28;20416;-64
2023/05/05 11:28:13;;;;;;;4.85;1.10;;;;;;;;;;5014233;28;20041;-63
2023/05/05 11:30:57;;;;;;;2.58;0.75;;;;;;;;;;5004499;28;20502;-64
2023/05/05 11:33:28;;;;;;;3.80;0.90;;;;;;;;;;5007005;28;20358;-66
2023/05/05 11:35:54;;;;;;;2.85;0.70;;;;;;;;;;5020617;28;21721;-66
2023/05/05 11:38:23;;;;;;;4.32;0.85;;;;;;;;;;5021581;28;20040;-64
2023/05/05 11:40:50;;;;;;;2.50;0.77;;;;;;;;;;4999755;28;20025;-66
2023/05/05 11:43:18;;;;;;;5.68;1.38;;;;;;;;;;5007486;28;20027;-68
2023/05/05 11:45:45;;;;;;;4.13;0.80;;;;;;;;;;5017184;28;20139;-67
2023/05/05 11:48:25;;;;;;;5.03;0.80;;;;;;;;;;5023284;28;20044;-65
2023/05/05 11:50:51;;;;;;;3.60;0.60;;;;;;;;;;5019159;28;20099;-65
2023/05/05 11:53:18;;;;;;;4.07;0.93;;;;;;;;;;5019403;28;20064;-66
2023/05/05 11:55:44;;;;;;;3.88;0.80;;;;;;;;;;5019328;28;20033;-65
2023/05/05 11:58:19;;;;;;;3.60;0.77;;;;;;;;;;5023989;28;20073;-66
2023/05/05 12:00:46;;;;;;;3.88;0.80;;;;;;;;;;5023360;28;20044;-65
2023/05/05 12:03:13;;;;;;;2.65;0.88;;;;;;;;;;5009327;28;20281;-65
2023/05/05 12:05:40;;;;;;;2.92;0.88;;;;;;;;;;5024739;28;20030;-65
2023/05/05 12:08:06;;;;;;;3.65;0.80;;;;;;;;;;5025290;28;20057;-65
2023/05/05 12:10:32;;;;;;;5.38;0.98;;;;;;;;;;5022923;28;20451;-65
2023/05/05 12:12:58;;;;;;;3.88;1.00;;;;;;;;;;5008337;28;20494;-65
2023/05/05 12:15:28;;;;;;;3.08;0.70;;;;;;;;;;5024480;28;20037;-65
2023/05/05 12:17:54;;;;;;;3.42;0.90;;;;;;;;;;5004721;28;20047;-64
2023/05/05 12:20:30;;;;;;;3.42;0.90;;;;;;;;;;5007317;28;20797;-65
2023/05/05 12:23:00;;;;;;;6.38;0.90;;;;;;;;;;5022854;28;20090;-65
2023/05/05 12:25:34;;;;;;;8.20;0.90;;;;;;;;;;5021935;28;20025;-65
2023/05/05 12:28:00;;;;;;;3.17;1.00;;;;;;;;;;5022918;28;20034;-65
2023/05/05 12:30:26;;;;;;;4.47;1.00;;;;;;;;;;5021702;28;20028;-65
2023/05/05 12:33:00;;;;;;;4.05;0.95;;;;;;;;;;5022544;28;20722;-65
2023/05/05 12:35:26;;;;;;;2.80;0.90;;;;;;;;;;5022325;28;20514;-65
2023/05/05 12:37:52;;;;;;;3.47;0.80;;;;;;;;;;5016669;28;20506;-65
2023/05/05 12:40:37;;;;;;;4.07;0.90;;;;;;;;;;5023250;28;20249;-65
2023/05/05 12:43:03;;;;;;;9.57;1.17;;;;;;;;;;5022572;28;20370;-65
2023/05/05 12:45:29;;;;;;;4.63;0.90;;;;;;;;;;5006676;28;20577;-65
2023/05/05 12:47:55;;;;;;;4.25;1.20;;;;;;;;;;5022704;28;20032;-65
2023/05/05 12:50:31;;;;;;;6.00;1.50;;;;;;;;;;5021451;28;20029;-64
2023/05/05 12:52:57;;;;;;;2.88;0.90;;;;;;;;;;5004630;28;20029;-65
2023/05/05 12:55:36;;;;;;;5.10;1.00;;;;;;;;;;5022983;28;20029;-64
2023/05/05 12:58:06;;;;;;;3.83;1.15;;;;;;;;;;5003971;28;20033;-65
2023/05/05 13:00:32;;;;;;;6.57;1.60;;;;;;;;;;5005542;28;20029;-64
2023/05/05 13:02:58;;;;;;;4.43;1.20;;;;;;;;;;5021277;28;20031;-66
2023/05/05 13:05:35;;;;;;;3.58;1.00;;;;;;;;;;5007114;28;20029;-64
2023/05/05 13:08:01;;;;;;;4.55;1.30;;;;;;;;;;5025930;28;20085;-63
2023/05/05 13:10:29;;;;;;;7.60;1.20;;;;;;;;;;5006673;28;20701;-64
2023/05/05 13:12:56;;;;;;;4.30;1.00;;;;;;;;;;5018026;28;20609;-65
2023/05/05 13:15:22;;;;;;;4.07;0.98;;;;;;;;;;5024581;28;20098;-65
2023/05/05 13:17:48;;;;;;;6.88;1.00;;;;;;;;;;5017945;28;20119;-64
2023/05/05 13:20:15;;;;;;;4.82;1.00;;;;;;;;;;5021660;28;20122;-64
2023/05/05 13:22:41;;;;;;;6.57;0.98;;;;;;;;;;5018152;28;20115;-64
2023/05/05 13:25:07;;;;;;;4.57;0.95;;;;;;;;;;5024951;28;20454;-64
2023/05/05 13:27:33;;;;;;;5.03;0.85;;;;;;;;;;5009885;28;20052;-66
2023/05/05 13:30:00;;;;;;;3.40;0.98;;;;;;;;;;5022038;28;20096;-65
2023/05/05 13:32:26;;;;;;;5.80;1.13;;;;;;;;;;5023179;28;20033;-65
2023/05/05 13:34:52;;;;;;;7.43;1.25;;;;;;;;;;5028007;28;20370;-64
2023/05/05 13:37:18;;;;;;;3.50;0.98;;;;;;;;;;5023429;28;20581;-64
2023/05/05 13:39:45;;;;;;;3.78;0.90;;;;;;;;;;5004469;28;20068;-63
2023/05/05 13:42:11;;;;;;;7.13;1.10;;;;;;;;;;5008003;28;20029;-65
2023/05/05 13:44:37;;;;;;;3.60;0.80;;;;;;;;;;5019013;28;20602;-64
2023/05/05 13:47:03;;;;;;;3.40;0.70;;;;;;;;;;5021107;28;20027;-66
2023/05/05 13:49:29;;;;;;;4.65;0.98;;;;;;;;;;5014147;28;20052;-66
2023/05/05 13:51:56;;;;;;;4.00;0.85;;;;;;;;;;5018331;28;20040;-65
2023/05/05 13:54:22;;;;;;;3.55;0.73;;;;;;;;;;5025354;28;20033;-66
2023/05/05 13:56:48;;;;;;;5.35;0.88;;;;;;;;;;5020296;28;20107;-66
2023/05/05 13:59:14;;;;;;;4.57;0.70;;;;;;;;;;5026506;28;20064;-64
2023/05/05 14:01:40;;;;;;;3.85;0.85;;;;;;;;;;5018394;28;20029;-65
2023/05/05 14:04:06;;;;;;;6.78;0.90;;;;;;;;;;5023559;28;20021;-66
2023/05/05 14:06:34;;;;;;;3.83;0.80;;;;;;;;;;5007666;28;20313;-65
2023/05/05 14:09:00;;;;;;;5.60;0.90;;;;;;;;;;5005749;28;20024;-66
2023/05/05 14:11:26;;;;;;;4.00;1.05;;;;;;;;;;5023537;28;20044;-66
2023/05/05 14:13:52;;;;;;;4.20;0.85;;;;;;;;;;5020548;28;20550;-66
2023/05/05 14:16:19;;;;;;;3.63;0.85;;;;;;;;;;5020428;28;20069;-68
2023/05/05 14:18:45;;;;;;;6.65;1.40;;;;;;;;;;5021665;28;20110;-68
2023/05/05 14:21:11;;;;;;;4.82;1.40;;;;;;;;;;5018864;28;20063;-68
2023/05/05 14:23:37;;;;;;;5.93;0.80;;;;;;;;;;5020987;28;20178;-67
2023/05/05 14:26:03;;;;;;;4.80;0.80;;;;;;;;;;5023880;28;20041;-70
2023/05/05 14:28:29;;;;;;;7.57;0.70;;;;;;;;;;5016272;28;20487;-70
2023/05/05 14:30:55;;;;;;;3.60;0.68;;;;;;;;;;5020682;28;20548;-69
2023/05/05 14:33:22;;;;;;;5.05;0.80;;;;;;;;;;5019160;28;20303;-68
2023/05/05 14:35:48;;;;;;;2.90;0.70;;;;;;;;;;5017125;28;20114;-69
2023/05/05 14:38:14;;;;;;;3.97;0.80;;;;;;;;;;5017108;28;20052;-68
2023/05/05 14:40:40;;;;;;;5.60;0.80;;;;;;;;;;5019121;28;20130;-70
2023/05/05 14:43:06;;;;;;;2.97;0.68;;;;;;;;;;5003496;28;20079;-68
2023/05/05 14:45:32;;;;;;;2.47;0.80;;;;;;;;;;5022437;28;20389;-68
2023/05/05 14:47:59;;;;;;;2.83;0.63;;;;;;;;;;5003445;28;20140;-69
2023/05/05 14:50:25;;;;;;;3.38;0.80;;;;;;;;;;5022971;28;20025;-67
2023/05/05 14:52:51;;;;;;;2.60;0.57;;;;;;;;;;5018826;28;20402;-69
2023/05/05 14:55:17;;;;;;;2.67;0.60;;;;;;;;;;5022091;28;20281;-68
2023/05/05 14:57:43;;;;;;;2.25;0.55;;;;;;;;;;5019077;28;20025;-68